KEKN/EKN METAR and TAF weather

Enter ICAO airport designator
Station Type Date Time Source
KEKN METAR 2019/12/08 13:51 UTC NOAA

KEKN 081351Z AUTO 16008KT 10SM CLR 03/M03 A3031 RMK AO2 SLP289 T00281033


Station Type Date Time Source
KEKN Decoded METAR 2019/12/08 13:51 UTC NOAA

JENNINGS RANDOLPH FIELD, WV, United States (KEKN) 38-53N 079-51W 603M
Dec 08, 2019 - 08:51 AM EST / 2019.12.08 1351 UTC
Wind: from the SSE (160 degrees) at 9 MPH (8 KT):0
Visibility: 10 mile(s):0
Sky conditions: clear
Temperature: 37.0 F (2.8 C)
Dew Point: 26.1 F (-3.3 C)
Relative Humidity: 64%
Pressure (altimeter): 30.31 in. Hg (1026 hPa)
ob: KEKN 081351Z AUTO 16008KT 10SM CLR 03/M03 A3031 RMK AO2 SLP289 T00281033
cycle: 14

Station Type Date Time Source
KEKN TAF 2019/12/08 12:36 UTC NOAA

TAF KEKN 081133Z 0812/0912 16006KT P6SM SCT250
FM081500 17009G16KT P6SM SCT150
FM081900 18011G19KT P6SM BKN090
FM082200 17009KT P6SM BKN070
FM090900 17009G16KT P6SM OVC060

Example: see airport list